< Cyclone 201724 2017 Season Cyclone 201727 >
Cyclone 201726 (Ernie)
General InformationTrack Information on Google MapsDetailed Wind InformationList of All Images || ResourceGoogle EarthGE AnimationAtom FeedGeoJSON
Detalied Best Track (Time Zone = UTC)
Year Month Day Hour Lat. Long. Pressure (hPa) Wind (kt) Class Image Chart
2017 4 5 00 -10.8 113.2 1007 15 2 Image --
2017 4 5 06 -11.4 112.1 1005 20 2 Image --
2017 4 5 12 -11.6 111.7 1005 20 2 Image --
2017 4 5 18 -12.3 111.3 1004 20 2 Image --
2017 4 6 00 -12.9 111.3 1002 25 2 Image --
2017 4 6 03 -13.1 111.1 1000 35 3 Image --
2017 4 6 06 -13.3 111.0 1000 35 3 Image --
2017 4 6 12 -13.6 110.9 998 40 3 Image --
2017 4 6 18 -14.0 110.9 995 45 3 Image --
2017 4 7 00 -14.8 110.5 987 60 4 Image --
2017 4 7 03 -15.0 110.4 974 75 5 Image --
2017 4 7 06 -15.2 110.4 956 95 5 Image --
2017 4 7 09 -15.4 110.5 946 105 5 Image --
2017 4 7 12 -15.5 110.6 936 115 5 Image --
2017 4 7 15 -15.7 110.4 922 120 5 Image --
2017 4 7 18 -15.8 110.4 922 120 5 Image --
2017 4 7 21 -15.9 110.4 928 115 5 Image --
2017 4 8 00 -16.1 110.4 934 110 5 Image --
2017 4 8 03 -16.3 110.2 948 100 5 Image --
2017 4 8 06 -16.5 109.9 960 90 5 Image --
2017 4 8 09 -16.6 109.6 960 90 5 Image --
2017 4 8 12 -16.6 109.3 963 85 5 Image --
2017 4 8 15 -16.7 109.0 966 80 5 Image --
2017 4 8 18 -16.7 108.7 972 75 5 Image --
2017 4 8 21 -16.6 108.5 972 75 5 Image --
2017 4 9 00 -16.8 108.3 971 75 5 Image --
2017 4 9 03 -17.1 108.1 971 75 5 Image --
2017 4 9 06 -17.3 107.7 977 70 5 Image --
2017 4 9 09 -17.5 107.3 981 65 5 Image --
2017 4 9 12 -17.7 106.7 988 55 4 Image --
2017 4 9 15 -17.7 106.1 992 50 4 Image --
2017 4 9 18 -17.7 105.6 990 50 4 Image --
2017 4 9 21 -17.8 104.7 992 50 4 Image --
2017 4 10 00 -18.1 104.2 994 45 3 Image --
2017 4 10 03 -18.3 103.7 994 45 3 Image --
2017 4 10 06 -18.5 103.1 998 40 3 Image --
< Cyclone 201724 2017 Season Cyclone 201727 >

Help